CMA CGM Fortuna — A8OF7 — position and weather

sailwx.info

Track history (hours):
 
Tides and Currents Weather Stations Pressure Air Temp Water Temp Dewpoint Dewpoint Depression Visibility Wind Speed Wind Dir Waves Ship Positions

CMA CGM Fortuna

Last reported at 2018-Jun-23 08:49 UTC. Time now 2018-Jun-25 03:39 UTC.
Position N 26°29' W 114°25'.

Length 204 m; beam 28 m; draft 9.5 m.

Type: Ship. MMSI: 636017731.

Date/timePositionNaut miles runAvg speedWind from/ knotsBaromVisibWave heightAir tempDewpointWater temp
2018-Jun-23 08:49N 26°29' W 114°25'516.5
2018-Jun-23 08:30N 26°33' W 114°28'916.7
2018-Jun-23 07:57N 26°41' W 114°34'8116.6
2018-Jun-23 03:02N 27°46' W 115°30'115.8
2018-Jun-23 02:57N 27°47' W 115°31'1915.6
2018-Jun-23 01:45N 28°01' W 115°43'25316.0
2018-Jun-22 09:57N 31°56' W 117°34'816.3
2018-Jun-22 09:29N 32°03' W 117°37'916.2
2018-Jun-22 08:55N 32°12' W 117°40'716.4
2018-Jun-22 08:30N 32°18' W 117°43'713.4
2018-Jun-22 08:00N 32°24' W 117°47'4 8.5
2018-Jun-22 07:31N 32°27' W 117°50'1712.4
2018-Jun-22 06:10N 32°41' W 118°01'315.7
2018-Jun-22 06:00N 32°43' W 118°03'1015.5
2018-Jun-22 05:23N 32°50' W 118°10'615.8
2018-Jun-22 04:59N 32°55' W 118°15'816.1
2018-Jun-22 04:30N 33°01' W 118°20'816.1
2018-Jun-22 04:00N 33°08' W 118°26'815.9
2018-Jun-22 03:30N 33°14' W 118°32'915.8
2018-Jun-22 02:57N 33°21' W 118°38'716.0
2018-Jun-22 02:29N 33°27' W 118°44'815.9
2018-Jun-22 02:00N 33°33' W 118°49'815.7
2018-Jun-22 01:30N 33°39' W 118°55'815.8
2018-Jun-22 01:00N 33°46' W 119°01'815.7
2018-Jun-22 00:30N 33°52' W 119°07'815.9
2018-Jun-22 00:00N 33°58' W 119°12'815.6
2018-Jun-21 23:30N 34°06' W 119°14'3 2.6
2018-Jun-21 22:18N 34°09' W 119°12'0 0.0
2018-Jun-21 19:01N 34°09' W 119°12'0 0.0
2018-Jun-21 18:34N 34°09' W 119°12'0 0.0
2018-Jun-21 18:04N 34°09' W 119°12'0 0.0
2018-Jun-21 17:55N 34°09' W 119°12'0 0.0
2018-Jun-21 15:25N 34°09' W 119°12'0 0.0
2018-Jun-21 14:48N 34°09' W 119°12'0 0.0
2018-Jun-21 14:00N 34°09' W 119°12'0 0.0
2018-Jun-21 12:39N 34°09' W 119°12'0 0.0
2018-Jun-21 12:20N 34°09' W 119°12'0 0.0
2018-Jun-21 11:35N 34°09' W 119°12'0 0.0
2018-Jun-21 11:23N 34°09' W 119°12'0 0.0
2018-Jun-21 00:18N 34°09' W 119°12'0 0.0
2018-Jun-20 21:41N 34°09' W 119°12'0 0.2
2018-Jun-20 21:20N 34°09' W 119°12'0 0.0
2018-Jun-20 20:44N 34°09' W 119°12'0 0.0
2018-Jun-20 20:25N 34°09' W 119°12'0 0.0
2018-Jun-20 19:55N 34°09' W 119°12'0 0.0
2018-Jun-20 16:42N 34°09' W 119°12'0 0.4
2018-Jun-20 16:25N 34°09' W 119°12'2 5.0
2018-Jun-20 16:00N 34°07' W 119°14'5 9.9
2018-Jun-20 15:30N 34°02' W 119°13'815.9
2018-Jun-20 15:00N 33°55' W 119°09'917.2
2018-Jun-20 14:30N 33°48' W 119°03'917.8
2018-Jun-20 14:00N 33°41' W 118°57'4217.3
2018-Jun-20 11:34N 33°07' W 118°26'117.6
2018-Jun-20 11:30N 33°07' W 118°25'1617.2
2018-Jun-20 10:35N 32°54' W 118°14'117.5
2018-Jun-20 10:30N 32°53' W 118°13'3815.0
2018-Jun-20 07:59N 32°21' W 117°48'  
Track history (hours):
 
Tides and Currents Weather Stations Pressure Air Temp Water Temp Dewpoint Dewpoint Depression Visibility Wind Speed Wind Dir Waves Ship Positions

CMA CGM Fortuna

Last reported at 2018-Jun-23 08:49 UTC. Time now 2018-Jun-25 03:39 UTC.
Position N 26°29' W 114°25'.

Length 204 m; beam 28 m; draft 9.5 m.

Type: Ship. MMSI: 636017731.

Date/timePositionNaut miles runAvg speedWind from/ knotsBaromVisibWave heightAir tempDewpointWater temp
2018-Jun-23 08:49N 26°29' W 114°25'516.5
2018-Jun-23 08:30N 26°33' W 114°28'916.7
2018-Jun-23 07:57N 26°41' W 114°34'8116.6
2018-Jun-23 03:02N 27°46' W 115°30'115.8
2018-Jun-23 02:57N 27°47' W 115°31'1915.6
2018-Jun-23 01:45N 28°01' W 115°43'25316.0
2018-Jun-22 09:57N 31°56' W 117°34'816.3
2018-Jun-22 09:29N 32°03' W 117°37'916.2
2018-Jun-22 08:55N 32°12' W 117°40'716.4
2018-Jun-22 08:30N 32°18' W 117°43'713.4
2018-Jun-22 08:00N 32°24' W 117°47'4 8.5
2018-Jun-22 07:31N 32°27' W 117°50'1712.4
2018-Jun-22 06:10N 32°41' W 118°01'315.7
2018-Jun-22 06:00N 32°43' W 118°03'1015.5
2018-Jun-22 05:23N 32°50' W 118°10'615.8
2018-Jun-22 04:59N 32°55' W 118°15'816.1
2018-Jun-22 04:30N 33°01' W 118°20'816.1
2018-Jun-22 04:00N 33°08' W 118°26'815.9
2018-Jun-22 03:30N 33°14' W 118°32'915.8
2018-Jun-22 02:57N 33°21' W 118°38'716.0
2018-Jun-22 02:29N 33°27' W 118°44'815.9
2018-Jun-22 02:00N 33°33' W 118°49'815.7
2018-Jun-22 01:30N 33°39' W 118°55'815.8
2018-Jun-22 01:00N 33°46' W 119°01'815.7
2018-Jun-22 00:30N 33°52' W 119°07'815.9
2018-Jun-22 00:00N 33°58' W 119°12'815.6
2018-Jun-21 23:30N 34°06' W 119°14'3 2.6
2018-Jun-21 22:18N 34°09' W 119°12'0 0.0
2018-Jun-21 19:01N 34°09' W 119°12'0 0.0
2018-Jun-21 18:34N 34°09' W 119°12'0 0.0
2018-Jun-21 18:04N 34°09' W 119°12'0 0.0
2018-Jun-21 17:55N 34°09' W 119°12'0 0.0
2018-Jun-21 15:25N 34°09' W 119°12'0 0.0
2018-Jun-21 14:48N 34°09' W 119°12'0 0.0
2018-Jun-21 14:00N 34°09' W 119°12'0 0.0
2018-Jun-21 12:39N 34°09' W 119°12'0 0.0
2018-Jun-21 12:20N 34°09' W 119°12'0 0.0
2018-Jun-21 11:35N 34°09' W 119°12'0 0.0
2018-Jun-21 11:23N 34°09' W 119°12'0 0.0
2018-Jun-21 00:18N 34°09' W 119°12'0 0.0
2018-Jun-20 21:41N 34°09' W 119°12'0 0.2
2018-Jun-20 21:20N 34°09' W 119°12'0 0.0
2018-Jun-20 20:44N 34°09' W 119°12'0 0.0
2018-Jun-20 20:25N 34°09' W 119°12'0 0.0
2018-Jun-20 19:55N 34°09' W 119°12'0 0.0
2018-Jun-20 16:42N 34°09' W 119°12'0 0.4
2018-Jun-20 16:25N 34°09' W 119°12'2 5.0
2018-Jun-20 16:00N 34°07' W 119°14'5 9.9
2018-Jun-20 15:30N 34°02' W 119°13'815.9
2018-Jun-20 15:00N 33°55' W 119°09'917.2
2018-Jun-20 14:30N 33°48' W 119°03'917.8
2018-Jun-20 14:00N 33°41' W 118°57'4217.3
2018-Jun-20 11:34N 33°07' W 118°26'117.6
2018-Jun-20 11:30N 33°07' W 118°25'1617.2
2018-Jun-20 10:35N 32°54' W 118°14'117.5
2018-Jun-20 10:30N 32°53' W 118°13'3815.0
2018-Jun-20 07:59N 32°21' W 117°48'  

Dump ship's entire track history